createdAt,value
2018-12-12T00:00:22.570Z,3.40
2018-12-12T00:02:48.787Z,3.50
2018-12-12T00:05:15.107Z,3.40
2018-12-12T00:07:41.267Z,3.50
2018-12-12T00:10:10.458Z,3.50
2018-12-12T00:12:37.200Z,3.60
2018-12-12T00:15:04.724Z,3.60
2018-12-12T00:17:31.018Z,3.50
2018-12-12T00:19:57.309Z,3.50
2018-12-12T00:22:23.560Z,3.50
2018-12-12T00:24:49.673Z,3.40
2018-12-12T00:27:15.907Z,3.30
2018-12-12T00:29:42.030Z,3.40
2018-12-12T00:32:08.326Z,3.40
2018-12-12T00:34:34.481Z,3.40
2018-12-12T00:37:00.715Z,3.40
2018-12-12T00:39:26.950Z,3.40
2018-12-12T00:41:54.063Z,3.50
2018-12-12T00:44:20.346Z,3.40
2018-12-12T00:46:46.706Z,3.50
2018-12-12T00:49:12.946Z,3.60
2018-12-12T00:51:39.287Z,3.50
2018-12-12T00:54:05.840Z,3.60
2018-12-12T00:56:32.031Z,3.60
2018-12-12T00:58:58.163Z,3.50
2018-12-12T01:01:24.458Z,3.60
2018-12-12T01:03:50.545Z,3.60
2018-12-12T01:06:16.757Z,3.40
2018-12-12T01:08:43.110Z,3.20
2018-12-12T01:11:15.771Z,3.30
2018-12-12T01:13:41.864Z,3.40
2018-12-12T01:16:08.059Z,3.40
2018-12-12T01:18:34.308Z,3.50
2018-12-12T01:21:00.430Z,3.40
2018-12-12T01:23:26.537Z,3.40
2018-12-12T01:25:52.796Z,3.40
2018-12-12T01:28:18.885Z,3.40
2018-12-12T01:30:45.301Z,3.50
2018-12-12T01:33:11.459Z,3.60
2018-12-12T01:35:37.673Z,3.60
2018-12-12T01:38:03.863Z,3.40
2018-12-12T01:40:30.265Z,3.40
2018-12-12T01:42:56.393Z,3.50
2018-12-12T01:45:22.634Z,3.40
2018-12-12T01:47:48.785Z,3.40
2018-12-12T01:50:15.020Z,3.40
2018-12-12T01:52:41.105Z,3.40
2018-12-12T01:55:07.349Z,3.30
2018-12-12T01:57:33.600Z,3.40
2018-12-12T01:59:59.854Z,3.40
2018-12-12T02:02:26.077Z,3.40
2018-12-12T02:04:52.328Z,3.40
2018-12-12T02:07:18.996Z,3.30
2018-12-12T02:09:45.222Z,3.40
2018-12-12T02:12:12.320Z,3.40
2018-12-12T02:14:38.487Z,3.40
2018-12-12T02:17:04.635Z,3.40
2018-12-12T02:19:30.930Z,3.40
2018-12-12T02:21:57.947Z,3.40
2018-12-12T02:24:24.076Z,3.30
2018-12-12T02:26:50.197Z,3.30
2018-12-12T02:29:16.445Z,3.50
2018-12-12T02:31:42.601Z,3.40
2018-12-12T02:34:08.730Z,3.40
2018-12-12T02:36:34.870Z,3.50
2018-12-12T02:39:01.083Z,3.40
2018-12-12T02:41:27.206Z,3.40
2018-12-12T02:43:53.543Z,3.40
2018-12-12T02:46:19.988Z,3.30
2018-12-12T02:48:46.253Z,3.40
2018-12-12T02:51:19.408Z,3.40
2018-12-12T02:53:46.161Z,3.40
2018-12-12T02:56:12.380Z,3.40
2018-12-12T02:58:38.793Z,3.40
2018-12-12T03:01:05.002Z,3.40
2018-12-12T03:03:31.319Z,3.50
2018-12-12T03:05:57.546Z,3.50
2018-12-12T03:08:23.671Z,3.50
2018-12-12T03:10:49.898Z,3.50
2018-12-12T03:13:16.136Z,3.40
2018-12-12T03:15:42.352Z,3.40
2018-12-12T03:18:08.511Z,3.40
2018-12-12T03:20:34.848Z,3.40
2018-12-12T03:23:00.934Z,3.30
2018-12-12T03:25:27.030Z,3.30
2018-12-12T03:27:53.193Z,3.30
2018-12-12T03:30:19.429Z,3.30
2018-12-12T03:32:45.542Z,3.20
2018-12-12T03:35:11.811Z,3.30
2018-12-12T03:37:37.969Z,3.30
2018-12-12T03:40:05.216Z,3.30
2018-12-12T03:42:32.003Z,3.20
2018-12-12T03:44:58.130Z,3.30
2018-12-12T03:47:24.598Z,3.20
2018-12-12T03:49:51.773Z,3.40
2018-12-12T03:52:17.909Z,3.40
2018-12-12T03:54:44.099Z,3.40
2018-12-12T03:57:10.250Z,3.40
2018-12-12T03:59:36.453Z,3.30
2018-12-12T04:02:02.919Z,3.30
2018-12-12T04:04:29.282Z,3.30
2018-12-12T04:06:55.416Z,3.20
2018-12-12T04:09:21.545Z,3.20
2018-12-12T04:11:47.760Z,3.10
2018-12-12T04:14:14.070Z,3.10
2018-12-12T04:16:41.295Z,3.20
2018-12-12T04:19:07.634Z,3.20
2018-12-12T04:21:34.031Z,3.20
2018-12-12T04:24:00.300Z,3.20
2018-12-12T04:26:26.606Z,3.20
2018-12-12T04:28:52.770Z,3.10
2018-12-12T04:31:18.993Z,3.10
2018-12-12T04:33:45.182Z,3.20
2018-12-12T04:36:11.482Z,3.10
2018-12-12T04:38:37.634Z,3.00
2018-12-12T04:41:03.884Z,3.10
2018-12-12T04:43:31.039Z,3.10
2018-12-12T04:45:57.424Z,3.20
2018-12-12T04:48:23.593Z,3.10
2018-12-12T04:50:50.839Z,2.90
2018-12-12T04:53:17.898Z,2.80
2018-12-12T04:55:45.069Z,2.90
2018-12-12T04:58:12.012Z,2.80
2018-12-12T05:00:38.396Z,2.80
2018-12-12T05:03:05.115Z,2.90
2018-12-12T05:05:32.621Z,2.90
2018-12-12T05:07:58.727Z,2.80
2018-12-12T05:10:24.963Z,2.90
2018-12-12T05:12:51.241Z,2.90
2018-12-12T05:15:18.465Z,2.90
2018-12-12T05:17:44.660Z,2.90
2018-12-12T05:20:10.837Z,2.90
2018-12-12T05:22:36.965Z,2.90
2018-12-12T05:25:03.786Z,2.90
2018-12-12T05:27:31.933Z,2.90
2018-12-12T05:29:59.998Z,2.90
2018-12-12T05:32:26.573Z,2.90
2018-12-12T05:34:52.733Z,2.90
2018-12-12T05:37:18.955Z,2.90
2018-12-12T05:39:52.454Z,3.00
2018-12-12T05:42:19.724Z,3.00
2018-12-12T05:44:46.017Z,3.00
2018-12-12T05:47:12.321Z,3.00
2018-12-12T05:49:39.478Z,3.10
2018-12-12T05:52:05.757Z,3.10
2018-12-12T05:54:31.869Z,3.00
2018-12-12T05:56:58.573Z,3.00
2018-12-12T05:59:27.573Z,3.00
2018-12-12T06:01:54.033Z,3.00
2018-12-12T06:04:20.429Z,2.90
2018-12-12T06:06:46.584Z,3.00
2018-12-12T06:09:13.181Z,3.00
2018-12-12T06:11:39.446Z,3.00
2018-12-12T06:14:05.657Z,3.00
2018-12-12T06:16:31.965Z,3.00
2018-12-12T06:18:58.164Z,3.00
2018-12-12T06:21:24.393Z,2.90
2018-12-12T06:23:50.623Z,2.80
2018-12-12T06:26:16.910Z,2.80
2018-12-12T06:28:43.985Z,2.90
2018-12-12T06:31:10.368Z,2.90
2018-12-12T06:33:36.628Z,3.00
2018-12-12T06:36:02.912Z,3.00
2018-12-12T06:38:29.910Z,3.00
2018-12-12T06:40:57.794Z,3.00
2018-12-12T06:43:24.079Z,3.00
2018-12-12T06:45:50.293Z,3.00
2018-12-12T06:48:16.458Z,3.00
2018-12-12T06:50:42.606Z,3.00
2018-12-12T06:53:08.907Z,3.00
2018-12-12T06:55:35.171Z,3.20
2018-12-12T06:58:01.565Z,3.10
2018-12-12T07:00:27.938Z,3.10
2018-12-12T07:02:54.231Z,3.20
2018-12-12T07:05:20.437Z,3.30
2018-12-12T07:07:46.716Z,3.30
2018-12-12T07:10:13.121Z,3.30
2018-12-12T07:12:40.170Z,3.30
2018-12-12T07:15:06.497Z,3.30
2018-12-12T07:17:32.893Z,3.40
2018-12-12T07:19:59.301Z,3.50
2018-12-12T07:22:25.547Z,3.50
2018-12-12T07:24:51.815Z,3.40
2018-12-12T07:27:18.023Z,3.40
2018-12-12T07:29:44.691Z,3.40
2018-12-12T07:32:11.225Z,3.50
2018-12-12T07:34:37.386Z,3.40
2018-12-12T07:37:04.494Z,3.50
2018-12-12T07:39:30.641Z,3.50
2018-12-12T07:42:00.857Z,3.50
2018-12-12T07:44:27.088Z,3.60
2018-12-12T07:46:53.817Z,3.50
2018-12-12T07:49:20.872Z,3.40
2018-12-12T07:51:47.123Z,3.50
2018-12-12T07:54:13.225Z,3.50
2018-12-12T07:56:39.426Z,3.70
2018-12-12T07:59:05.708Z,3.60
2018-12-12T08:01:31.865Z,3.70
2018-12-12T08:03:58.094Z,3.70
2018-12-12T08:06:24.382Z,3.70
2018-12-12T08:08:50.701Z,3.80
2018-12-12T08:11:16.882Z,3.70
2018-12-12T08:13:43.129Z,3.80
2018-12-12T08:16:09.338Z,3.80
2018-12-12T08:18:35.613Z,3.80
2018-12-12T08:21:02.048Z,3.80
2018-12-12T08:23:28.973Z,3.70
2018-12-12T08:25:55.378Z,3.60
2018-12-12T08:28:22.451Z,3.60
2018-12-12T08:30:48.809Z,3.60
2018-12-12T08:33:15.111Z,3.70
2018-12-12T08:35:41.358Z,3.60
2018-12-12T08:38:07.454Z,3.50
2018-12-12T08:40:33.609Z,3.60
2018-12-12T08:42:59.899Z,3.70
2018-12-12T08:45:26.025Z,3.70
2018-12-12T08:47:52.977Z,3.80
2018-12-12T08:50:19.198Z,3.70
2018-12-12T08:52:45.536Z,3.60
2018-12-12T08:55:17.440Z,3.60
2018-12-12T08:57:40.001Z,3.60
2018-12-12T09:00:06.805Z,3.60
2018-12-12T09:02:33.151Z,3.70
2018-12-12T09:04:59.307Z,3.70
2018-12-12T09:07:25.435Z,3.70
2018-12-12T09:09:51.700Z,3.60
2018-12-12T09:12:17.920Z,3.70
2018-12-12T09:14:44.064Z,3.70
2018-12-12T09:17:10.285Z,3.70
2018-12-12T09:19:36.477Z,3.70
2018-12-12T09:22:02.799Z,3.80
2018-12-12T09:24:28.893Z,3.80
2018-12-12T09:26:54.987Z,3.80
2018-12-12T09:29:21.131Z,3.90
2018-12-12T09:31:48.231Z,3.80
2018-12-12T09:34:14.441Z,3.90
2018-12-12T09:36:40.549Z,4.00
2018-12-12T09:39:07.718Z,4.10
2018-12-12T09:41:34.096Z,4.00
2018-12-12T09:44:00.336Z,4.10
2018-12-12T09:46:26.485Z,4.10
2018-12-12T09:48:52.676Z,4.10
2018-12-12T09:51:18.943Z,4.20
2018-12-12T09:53:45.120Z,4.30
2018-12-12T09:56:11.333Z,4.40
2018-12-12T09:58:37.559Z,4.40
2018-12-12T10:01:03.958Z,4.40
2018-12-12T10:03:31.292Z,4.40
2018-12-12T10:05:57.789Z,4.40
2018-12-12T10:08:24.263Z,4.40
2018-12-12T10:10:50.475Z,4.50
2018-12-12T10:13:16.863Z,4.50
2018-12-12T10:15:43.032Z,4.50
2018-12-12T10:18:09.374Z,4.50
2018-12-12T10:20:35.666Z,4.50
2018-12-12T10:23:01.761Z,4.60
2018-12-12T10:25:27.979Z,4.60
2018-12-12T10:27:54.110Z,4.70
2018-12-12T10:30:20.304Z,4.70
2018-12-12T10:32:46.538Z,4.80
2018-12-12T10:35:12.772Z,4.80
2018-12-12T10:37:38.900Z,4.70
2018-12-12T10:40:05.383Z,4.80
2018-12-12T10:42:31.550Z,4.90
2018-12-12T10:44:57.832Z,4.90
2018-12-12T10:47:23.975Z,4.80
2018-12-12T10:49:50.235Z,4.80
2018-12-12T10:52:16.649Z,4.70
2018-12-12T10:54:43.308Z,4.80
2018-12-12T10:57:09.654Z,4.70
2018-12-12T10:59:35.782Z,4.90
2018-12-12T11:05:11.460Z,4.80
2018-12-12T11:07:37.698Z,4.90
2018-12-12T11:10:04.399Z,4.90
2018-12-12T11:12:31.406Z,5.00
2018-12-12T11:14:57.699Z,5.00
2018-12-12T11:17:24.006Z,5.20
2018-12-12T11:19:50.891Z,5.20
2018-12-12T11:22:17.079Z,5.10
2018-12-12T11:24:43.383Z,5.20
2018-12-12T11:27:09.601Z,5.30
2018-12-12T11:29:43.751Z,5.40
2018-12-12T11:32:10.093Z,5.40
2018-12-12T11:34:36.394Z,5.50
2018-12-12T11:37:03.664Z,5.50
2018-12-12T11:39:29.766Z,5.60
2018-12-12T11:41:55.876Z,5.40
2018-12-12T11:44:21.962Z,5.30
2018-12-12T11:46:48.177Z,5.40
2018-12-12T11:49:14.429Z,5.30
2018-12-12T11:51:42.173Z,5.40
2018-12-12T11:54:08.400Z,5.30
2018-12-12T11:56:34.661Z,5.20
2018-12-12T11:59:00.917Z,5.20
2018-12-12T12:01:27.148Z,5.30
2018-12-12T12:03:56.766Z,5.30
2018-12-12T12:06:22.599Z,5.50
2018-12-12T12:08:49.584Z,5.50
2018-12-12T12:11:15.807Z,5.60
2018-12-12T12:13:41.938Z,5.50
2018-12-12T12:16:08.185Z,5.60
2018-12-12T12:18:34.516Z,6.00
2018-12-12T12:21:00.825Z,6.20
2018-12-12T12:23:27.056Z,6.60
2018-12-12T12:25:53.253Z,6.70
2018-12-12T12:28:19.464Z,7.30
2018-12-12T12:30:45.537Z,8.40
2018-12-12T12:33:11.697Z,9.00
2018-12-12T12:35:37.804Z,8.80
2018-12-12T12:38:04.045Z,8.20
2018-12-12T12:40:30.195Z,7.50
2018-12-12T12:42:56.429Z,7.00
2018-12-12T12:45:23.027Z,6.70
2018-12-12T12:47:49.211Z,6.30
2018-12-12T12:50:15.400Z,6.00
2018-12-12T12:52:42.315Z,5.90
2018-12-12T12:55:09.597Z,5.80
2018-12-12T12:57:35.699Z,5.60
2018-12-12T13:00:03.114Z,5.50
2018-12-12T13:02:29.301Z,5.50
2018-12-12T13:04:55.454Z,5.50
2018-12-12T13:07:21.782Z,5.40
2018-12-12T13:09:48.934Z,5.30
2018-12-12T13:12:15.156Z,5.30
2018-12-12T13:14:41.406Z,5.20
2018-12-12T13:17:07.578Z,5.30
2018-12-12T13:19:34.477Z,5.30
2018-12-12T13:22:00.722Z,5.20
2018-12-12T13:24:26.930Z,5.00
2018-12-12T13:26:53.965Z,5.00
2018-12-12T13:29:20.503Z,5.00
2018-12-12T13:31:46.799Z,5.00
2018-12-12T13:34:16.260Z,5.10
2018-12-12T13:36:41.145Z,5.10
2018-12-12T13:39:08.161Z,4.90
2018-12-12T13:41:34.623Z,5.00
2018-12-12T13:44:01.067Z,5.00
2018-12-12T13:46:27.286Z,5.10
2018-12-12T13:49:00.639Z,5.10
2018-12-12T13:51:27.741Z,5.10
2018-12-12T13:53:53.928Z,5.10
2018-12-12T13:56:20.174Z,5.00
2018-12-12T13:58:47.278Z,4.90
2018-12-12T14:01:14.626Z,4.80
2018-12-12T14:03:40.911Z,4.70
2018-12-12T14:06:07.144Z,4.70
2018-12-12T14:08:33.431Z,4.60
2018-12-12T14:10:59.755Z,4.60
2018-12-12T14:13:25.923Z,4.70
2018-12-12T14:15:52.078Z,4.60
2018-12-12T14:18:18.225Z,4.60
2018-12-12T14:20:45.279Z,4.70
2018-12-12T14:23:11.470Z,4.60
2018-12-12T14:25:37.623Z,4.50
2018-12-12T14:28:03.817Z,4.50
2018-12-12T14:30:30.174Z,4.40
2018-12-12T14:32:56.402Z,4.30
2018-12-12T14:35:22.867Z,4.20
2018-12-12T14:37:49.000Z,4.20
2018-12-12T14:40:15.241Z,4.20
2018-12-12T14:42:41.398Z,4.10
2018-12-12T14:45:08.435Z,4.10
2018-12-12T14:47:34.533Z,4.10
2018-12-12T14:50:00.731Z,4.10
2018-12-12T14:52:29.487Z,4.10
2018-12-12T14:54:55.659Z,4.00
2018-12-12T14:57:22.069Z,4.00
2018-12-12T14:59:49.293Z,4.00
2018-12-12T15:02:15.552Z,4.00
2018-12-12T15:04:42.972Z,4.00
2018-12-12T15:07:11.057Z,4.10
2018-12-12T15:09:38.472Z,4.10
2018-12-12T15:12:05.132Z,4.10
2018-12-12T15:14:32.974Z,4.10
2018-12-12T15:16:59.415Z,4.00
2018-12-12T15:19:29.568Z,4.00
2018-12-12T15:21:57.213Z,3.90
2018-12-12T15:24:25.314Z,3.90
2018-12-12T15:26:51.690Z,3.90
2018-12-12T15:29:18.109Z,3.90
2018-12-12T15:34:48.671Z,4.00
2018-12-12T15:37:18.538Z,4.00
2018-12-12T15:42:45.993Z,3.90
2018-12-12T15:45:27.022Z,3.90
2018-12-12T15:47:56.936Z,3.90
2018-12-12T15:50:50.654Z,3.80
2018-12-12T15:59:40.538Z,3.90
2018-12-12T16:11:26.425Z,3.90
2018-12-12T16:14:20.712Z,3.80
2018-12-12T16:23:14.771Z,3.80
2018-12-12T16:25:58.966Z,3.80
2018-12-12T16:31:33.643Z,3.80
2018-12-12T16:37:06.795Z,3.80
2018-12-12T16:48:49.696Z,3.80
2018-12-12T16:54:27.539Z,3.70
2018-12-12T16:56:58.706Z,3.70
2018-12-12T16:59:52.875Z,3.80
2018-12-12T17:05:07.905Z,3.70
2018-12-12T17:07:34.036Z,3.60
2018-12-12T17:10:01.210Z,3.70
2018-12-12T17:12:27.429Z,3.70
2018-12-12T17:14:53.534Z,3.60
2018-12-12T17:17:20.483Z,3.50
2018-12-12T17:19:47.665Z,3.40
2018-12-12T17:22:13.832Z,3.20
2018-12-12T17:24:40.091Z,3.00
2018-12-12T17:27:07.458Z,2.80
2018-12-12T17:29:33.588Z,2.70
2018-12-12T17:31:59.808Z,2.50
2018-12-12T17:34:26.919Z,2.40
2018-12-12T17:36:53.134Z,2.30
2018-12-12T17:39:21.278Z,2.20
2018-12-12T17:41:49.086Z,2.10
2018-12-12T17:44:15.242Z,2.00
2018-12-12T17:46:42.631Z,2.00
2018-12-12T17:49:09.645Z,1.90
2018-12-12T17:51:35.868Z,1.80
2018-12-12T17:54:03.228Z,1.80
2018-12-12T17:56:29.349Z,1.80
2018-12-12T17:58:56.297Z,1.90
2018-12-12T18:01:22.650Z,1.90
2018-12-12T18:03:48.954Z,2.00
2018-12-12T18:06:15.180Z,2.00
2018-12-12T18:08:41.313Z,2.00
2018-12-12T18:11:08.419Z,2.00
2018-12-12T18:13:34.510Z,2.00
2018-12-12T18:16:00.616Z,2.00
2018-12-12T18:18:27.024Z,2.00
2018-12-12T18:20:54.258Z,1.90
2018-12-12T18:23:21.181Z,1.90
2018-12-12T18:25:49.368Z,1.80
2018-12-12T18:28:16.516Z,1.70
2018-12-12T18:30:42.612Z,1.60
2018-12-12T18:33:08.766Z,1.60
2018-12-12T18:35:35.189Z,1.80
2018-12-12T18:38:02.246Z,1.90
2018-12-12T18:40:28.394Z,2.00
2018-12-12T18:42:54.531Z,2.00
2018-12-12T18:45:20.728Z,2.10
2018-12-12T18:47:47.862Z,2.10
2018-12-12T18:50:14.136Z,2.00
2018-12-12T18:52:40.444Z,2.00
2018-12-12T18:55:06.875Z,2.00
2018-12-12T18:57:33.040Z,1.90
2018-12-12T18:59:59.531Z,2.00
2018-12-12T19:02:25.741Z,2.00
2018-12-12T19:04:51.981Z,2.00
2018-12-12T19:07:18.344Z,1.90
2018-12-12T19:09:44.624Z,1.80
2018-12-12T19:12:11.816Z,1.90
2018-12-12T19:14:41.022Z,1.90
2018-12-12T19:17:07.169Z,1.80
2018-12-12T19:19:33.293Z,1.90
2018-12-12T19:21:59.584Z,2.00
2018-12-12T19:24:25.733Z,2.10
2018-12-12T19:26:52.001Z,2.30
2018-12-12T19:29:18.143Z,2.40
2018-12-12T19:31:44.494Z,2.40
2018-12-12T19:34:10.669Z,2.50
2018-12-12T19:36:36.817Z,2.60
2018-12-12T19:39:06.058Z,2.70
2018-12-12T19:41:32.534Z,2.70
2018-12-12T19:43:58.967Z,2.70
2018-12-12T19:46:25.335Z,2.70
2018-12-12T19:48:51.480Z,2.70
2018-12-12T19:51:17.861Z,2.90
2018-12-12T19:53:44.075Z,3.00
2018-12-12T19:56:10.410Z,3.00
2018-12-12T19:58:36.681Z,2.90
2018-12-12T20:01:03.054Z,2.80
2018-12-12T20:03:29.435Z,2.80
2018-12-12T20:05:55.669Z,2.80
2018-12-12T20:08:21.998Z,2.80
2018-12-12T20:10:48.275Z,2.90
2018-12-12T20:13:14.586Z,2.80
2018-12-12T20:15:43.786Z,2.90
2018-12-12T20:18:10.165Z,2.90
2018-12-12T20:20:36.509Z,2.80
2018-12-12T20:23:02.824Z,2.80
2018-12-12T20:25:28.957Z,2.80
2018-12-12T20:27:55.128Z,2.80
2018-12-12T20:30:21.451Z,2.80
2018-12-12T20:32:47.746Z,2.80
2018-12-12T20:35:14.191Z,2.90
2018-12-12T20:37:40.361Z,2.90
2018-12-12T20:40:06.802Z,3.00
2018-12-12T20:42:33.188Z,3.00
2018-12-12T20:44:59.460Z,3.00
2018-12-12T20:47:25.662Z,3.00
2018-12-12T20:49:51.789Z,3.00
2018-12-12T20:52:17.940Z,3.10
2018-12-12T20:54:44.119Z,3.00
2018-12-12T21:00:06.619Z,3.10
2018-12-12T21:02:33.021Z,3.00
2018-12-12T21:04:59.245Z,3.00
2018-12-12T21:07:25.391Z,3.00
2018-12-12T21:09:51.512Z,3.00
2018-12-12T21:12:17.917Z,2.90
2018-12-12T21:14:44.820Z,3.00
2018-12-12T21:17:10.967Z,2.90
2018-12-12T21:19:38.252Z,2.90
2018-12-12T21:22:11.882Z,3.00
2018-12-12T21:24:38.149Z,3.00
2018-12-12T21:27:04.281Z,3.00
2018-12-12T21:29:30.843Z,2.90
2018-12-12T21:31:56.982Z,2.90
2018-12-12T21:34:23.126Z,2.90
2018-12-12T21:36:49.331Z,2.90
2018-12-12T21:39:22.677Z,2.90
2018-12-12T21:41:48.841Z,2.80
2018-12-12T21:44:15.134Z,2.70
2018-12-12T21:46:41.254Z,2.70
2018-12-12T21:49:07.512Z,2.60
2018-12-12T21:51:33.612Z,2.60
2018-12-12T21:53:59.731Z,2.50
2018-12-12T21:56:25.929Z,2.50
2018-12-12T21:58:52.267Z,2.40
2018-12-12T22:01:19.113Z,2.50
2018-12-12T22:03:45.305Z,2.60
2018-12-12T22:06:11.555Z,2.60
2018-12-12T22:08:37.717Z,2.50
2018-12-12T22:11:04.058Z,2.40
2018-12-12T22:13:30.382Z,2.50
2018-12-12T22:15:57.469Z,2.50
2018-12-12T22:18:23.658Z,2.50
2018-12-12T22:20:49.785Z,2.60
2018-12-12T22:23:16.989Z,2.50
2018-12-12T22:25:43.123Z,2.70
2018-12-12T22:28:09.297Z,2.70
2018-12-12T22:30:35.518Z,2.70
2018-12-12T22:33:01.640Z,2.70
2018-12-12T22:35:28.284Z,2.70
2018-12-12T22:37:54.641Z,2.80
2018-12-12T22:40:20.925Z,2.80
2018-12-12T22:42:47.069Z,2.70
2018-12-12T22:45:13.227Z,2.70
2018-12-12T22:47:39.347Z,2.70
2018-12-12T22:50:05.773Z,2.80
2018-12-12T22:52:31.902Z,2.80
2018-12-12T22:54:58.045Z,2.80
2018-12-12T22:57:24.170Z,2.80
2018-12-12T22:59:50.447Z,2.70
2018-12-12T23:02:16.610Z,2.70
2018-12-12T23:04:42.815Z,2.70
2018-12-12T23:07:08.940Z,2.70
2018-12-12T23:09:35.116Z,2.70
2018-12-12T23:12:01.635Z,2.60
2018-12-12T23:14:27.880Z,2.60
2018-12-12T23:16:54.041Z,2.50
2018-12-12T23:19:20.185Z,2.40
2018-12-12T23:21:46.418Z,2.30
2018-12-12T23:24:12.729Z,2.20
2018-12-12T23:26:38.871Z,2.30
2018-12-12T23:29:05.052Z,2.40
2018-12-12T23:31:31.261Z,2.50
2018-12-12T23:33:57.520Z,2.50
2018-12-12T23:36:26.885Z,2.50
2018-12-12T23:38:52.026Z,2.50
2018-12-12T23:41:18.242Z,2.50
2018-12-12T23:43:44.397Z,2.50
2018-12-12T23:46:10.638Z,2.50
2018-12-12T23:48:36.759Z,2.20
2018-12-12T23:51:02.905Z,2.20
2018-12-12T23:53:28.996Z,2.20
2018-12-12T23:55:55.199Z,2.20
2018-12-12T23:58:21.389Z,2.20
